首页
METAR-TAF:

METAR-TAF

机场 :

马杜赖, 印度

纬度: 09-50-01N, 经度: 078-05-22E, 海拔: 136米

当前天气观测

该预报发布于46分钟前的12:30 UTC
风速10节,风向南转南东
温度 34°C
湿度 56%
气压 1004 hPa
能見度: 6000
散云层高于2000英尺
少量云层高于2500英尺, 塔状积云.

METAR: VOMD 171230Z 15010KT 6000 SCT020 FEW025TCU 34/24 Q1004 NOSIG

时间: 18:46 (13:16 UTC)

预报

该预报发布于2小时和16分钟前的11:00 UTC
预报有效从17日的 12点(UTC)到 18日的 18点(UTC)
风速5节,风向
能見度: 5000
散云层高于2000英尺
散云层高于10000英尺
短暂存在
从 17日的 12点(UTC)到 17日的 18点(UTC)
散云层高于1800英尺
多云层高于10000英尺
成为
从 17日的 21点(UTC)到 17日的 22点(UTC)
风速5节,风向北转东北
成为
从 18日的 03点(UTC)到 18日的 04点(UTC)
风速5节,风向西
能見度: 6000
成为
从 18日的 06点(UTC)到 18日的 07点(UTC)
风速15节,风向西
成为
从 18日的 12点(UTC)到 18日的 13点(UTC)
风速5节,风向
能見度: 5000
霾,

TAF: VOMD 171100Z 1712/1818 09005KT 5000 HZ SCT020 SCT100 TEMPO 1712/1718 SCT018 FEW025TCU/CB BKN100 BECMG 1721/1722 03005KT BECMG 1803/1804 27005KT 6000 BECMG 1806/1807 27015KT BECMG 1812/1813 09005KT 5000 HZ

超过4000个机场的气象观测和天气预报(METAR&TAF报告)。

可查询的气象台以黄色和红色小点在地图上表示。

将鼠标移到小点上方,可查看气象台名称。

然后点击查看天气观测和预报。

如需切换地图:点击带黑十字的绿色按钮放大地图;点击带横线的绿色按钮缩小地图;或者点击绿色箭头查看邻近地区的地图。


METAR-TAF: